createdAt,value
2022-11-03T00:01:49.119Z,86.48
2022-11-03T00:04:18.197Z,85.98
2022-11-03T00:06:46.266Z,86.15
2022-11-03T00:09:16.241Z,86.19
2022-11-03T00:11:44.845Z,87.02
2022-11-03T00:14:13.330Z,86.28
2022-11-03T00:16:41.417Z,85.75
2022-11-03T00:19:09.451Z,86.75
2022-11-03T00:21:36.495Z,86.22
2022-11-03T00:24:05.359Z,86.26
2022-11-03T00:26:34.298Z,86.34
2022-11-03T00:29:05.900Z,86.62
2022-11-03T00:31:36.508Z,86.48
2022-11-03T00:34:03.842Z,86.25
2022-11-03T00:36:33.730Z,86.00
2022-11-03T00:39:00.530Z,86.79
2022-11-03T00:41:27.663Z,86.59
2022-11-03T00:43:54.964Z,86.79
2022-11-03T00:46:23.475Z,87.01
2022-11-03T00:48:50.593Z,87.79
2022-11-03T00:51:22.749Z,87.56
2022-11-03T00:53:56.523Z,87.39
2022-11-03T00:56:24.378Z,87.96
2022-11-03T00:58:52.077Z,88.62
2022-11-03T01:01:20.651Z,87.62
2022-11-03T01:04:08.440Z,88.15
2022-11-03T01:06:56.417Z,88.45
2022-11-03T01:09:27.638Z,87.93
2022-11-03T01:11:59.533Z,88.51
2022-11-03T01:14:31.190Z,89.13
2022-11-03T01:16:58.034Z,89.23
2022-11-03T01:19:26.561Z,89.52
2022-11-03T01:21:53.906Z,88.69
2022-11-03T01:24:21.071Z,89.11
2022-11-03T01:26:48.301Z,88.87
2022-11-03T01:29:14.963Z,89.26
2022-11-03T01:31:41.696Z,89.95
2022-11-03T01:34:16.693Z,90.10
2022-11-03T01:36:44.249Z,89.76
2022-11-03T01:39:12.513Z,89.39
2022-11-03T01:41:40.373Z,90.47
2022-11-03T01:44:06.901Z,89.56
2022-11-03T01:46:41.039Z,90.07
2022-11-03T01:49:30.062Z,89.58
2022-11-03T01:52:20.854Z,89.47
2022-11-03T01:54:55.879Z,89.32
2022-11-03T01:57:34.461Z,89.79
2022-11-03T02:00:02.632Z,89.34
2022-11-03T02:02:29.311Z,89.63
2022-11-03T02:04:58.975Z,89.56
2022-11-03T02:07:32.903Z,89.11
2022-11-03T02:09:59.546Z,88.71
2022-11-03T02:12:29.721Z,89.16
2022-11-03T02:15:05.677Z,89.45
2022-11-03T02:17:33.640Z,89.53
2022-11-03T02:20:13.845Z,89.10
2022-11-03T02:23:01.322Z,90.11
2022-11-03T02:25:42.679Z,90.15
2022-11-03T02:28:09.755Z,89.71
2022-11-03T02:31:03.383Z,89.24
2022-11-03T02:33:41.785Z,89.33
2022-11-03T02:36:42.197Z,89.43
2022-11-03T02:39:21.144Z,89.07
2022-11-03T02:41:49.245Z,89.00
2022-11-03T02:44:18.964Z,89.46
2022-11-03T02:46:49.004Z,89.13
2022-11-03T02:49:15.750Z,88.86
2022-11-03T02:51:42.342Z,89.30
2022-11-03T02:54:22.349Z,88.98
2022-11-03T02:57:16.211Z,88.32
2022-11-03T02:59:54.290Z,88.56
2022-11-03T03:02:26.316Z,88.05
2022-11-03T03:05:00.966Z,89.11
2022-11-03T03:07:41.478Z,89.15
2022-11-03T03:10:11.236Z,88.51
2022-11-03T03:12:44.840Z,88.74
2022-11-03T03:15:11.503Z,88.30
2022-11-03T03:17:55.248Z,88.77
2022-11-03T03:20:32.481Z,88.05
2022-11-03T03:23:07.513Z,88.30
2022-11-03T03:25:47.175Z,88.27
2022-11-03T03:28:27.378Z,88.39
2022-11-03T03:30:57.185Z,88.28
2022-11-03T03:36:01.720Z,88.74
2022-11-03T03:38:35.787Z,88.10
2022-11-03T03:41:05.496Z,87.86
2022-11-03T03:43:35.684Z,88.71
2022-11-03T03:46:10.934Z,88.14
2022-11-03T03:48:37.736Z,88.13
2022-11-03T03:51:05.410Z,87.53
2022-11-03T03:53:32.091Z,87.07
2022-11-03T03:55:59.480Z,86.96
2022-11-03T03:58:26.141Z,87.15
2022-11-03T04:00:52.826Z,87.37
2022-11-03T04:03:22.485Z,87.43
2022-11-03T04:05:49.830Z,87.72
2022-11-03T04:08:18.171Z,87.06
2022-11-03T04:11:05.589Z,87.50
2022-11-03T04:13:52.463Z,87.89
2022-11-03T04:16:37.885Z,87.18
2022-11-03T04:19:24.885Z,87.38
2022-11-03T04:22:09.934Z,87.69
2022-11-03T04:24:36.606Z,87.63
2022-11-03T04:27:32.170Z,87.97
2022-11-03T04:30:20.121Z,86.95
2022-11-03T04:32:49.929Z,87.44
2022-11-03T04:35:25.253Z,87.32
2022-11-03T04:37:58.876Z,87.70
2022-11-03T04:40:25.779Z,87.37
2022-11-03T04:42:52.538Z,86.69
2022-11-03T04:45:32.257Z,86.58
2022-11-03T04:48:01.900Z,86.80
2022-11-03T04:50:28.492Z,87.19
2022-11-03T04:52:57.829Z,86.82
2022-11-03T04:55:25.906Z,86.18
2022-11-03T04:58:00.330Z,86.59
2022-11-03T05:00:28.047Z,86.03
2022-11-03T05:02:56.330Z,86.84
2022-11-03T05:05:26.037Z,86.26
2022-11-03T05:07:55.465Z,86.98
2022-11-03T05:10:26.191Z,86.22
2022-11-03T05:12:55.028Z,86.54
2022-11-03T05:15:45.832Z,86.19
2022-11-03T05:18:25.506Z,87.01
2022-11-03T05:20:58.705Z,85.93
2022-11-03T05:23:29.493Z,86.25
2022-11-03T05:25:59.445Z,86.71
2022-11-03T05:28:33.612Z,86.99
2022-11-03T18:09:49.645Z,88.38
2022-11-03T18:12:39.048Z,89.33
2022-11-03T18:15:09.499Z,89.55
2022-11-03T18:17:36.141Z,90.67
2022-11-03T18:20:04.212Z,90.28
2022-11-03T18:22:35.853Z,90.59
2022-11-03T18:25:21.288Z,90.25
2022-11-03T18:27:49.020Z,89.91
2022-11-03T18:30:19.131Z,89.52
2022-11-03T18:32:46.123Z,89.33
2022-11-03T18:35:20.544Z,88.41
2022-11-03T18:37:47.312Z,88.25
2022-11-03T18:40:14.986Z,87.47
2022-11-03T18:42:44.654Z,87.47
2022-11-03T18:45:17.113Z,87.12
2022-11-03T18:47:55.490Z,86.57
2022-11-03T18:50:22.164Z,86.96
2022-11-03T18:52:49.614Z,86.20
2022-11-03T18:55:20.220Z,86.50
2022-11-03T18:57:46.997Z,86.92
2022-11-03T19:00:23.176Z,86.93
2022-11-03T19:02:50.564Z,86.59
2022-11-03T19:05:18.463Z,85.68
2022-11-03T19:07:50.824Z,85.30
2022-11-03T19:10:22.345Z,86.33
2022-11-03T19:12:51.657Z,87.25
2022-11-03T19:15:23.582Z,86.40
2022-11-03T19:17:54.979Z,86.51
2022-11-03T19:20:23.493Z,86.31
2022-11-03T19:22:50.915Z,86.70
2022-11-03T19:25:18.803Z,86.37
2022-11-03T19:27:48.070Z,86.94
2022-11-03T19:30:19.642Z,86.24
2022-11-03T19:32:53.571Z,86.31
2022-11-03T19:35:20.174Z,86.19
2022-11-03T19:37:57.786Z,86.39
2022-11-03T19:40:24.412Z,86.68
2022-11-03T19:42:50.992Z,85.99
2022-11-03T19:45:19.804Z,86.19
2022-11-03T19:50:46.411Z,86.47
2022-11-03T19:53:20.404Z,85.79
2022-11-03T19:55:47.809Z,86.26
2022-11-03T19:58:29.199Z,86.04
2022-11-03T20:00:56.694Z,86.59
2022-11-03T20:03:24.413Z,86.23
2022-11-03T20:05:56.603Z,85.90
2022-11-03T20:08:27.208Z,85.86
2022-11-03T20:10:54.044Z,86.11
2022-11-03T20:13:26.564Z,85.32
2022-11-03T20:16:00.228Z,85.36
2022-11-03T20:18:36.838Z,84.90
2022-11-03T20:21:05.894Z,84.63
2022-11-03T20:23:35.849Z,85.04
2022-11-03T20:26:02.751Z,85.36
2022-11-03T20:28:37.853Z,85.08
2022-11-03T20:31:04.519Z,84.88
2022-11-03T20:33:31.178Z,85.18
2022-11-03T20:35:59.059Z,85.08
2022-11-03T20:38:27.718Z,84.16
2022-11-03T20:41:00.018Z,83.52
2022-11-03T20:43:31.628Z,84.15
2022-11-03T20:45:59.381Z,83.70
2022-11-03T20:48:26.670Z,82.59
2022-11-03T20:50:54.442Z,83.20
2022-11-03T20:53:24.355Z,82.71
2022-11-03T20:55:52.908Z,83.14
2022-11-03T20:58:19.691Z,83.15
2022-11-03T21:00:47.940Z,82.61
2022-11-03T21:03:37.830Z,83.25
2022-11-03T21:06:16.876Z,83.12
2022-11-03T21:08:46.719Z,82.79
2022-11-03T21:11:25.296Z,82.72
2022-11-03T21:14:16.938Z,83.12
2022-11-03T21:17:01.967Z,83.26
2022-11-03T21:19:49.964Z,83.72
2022-11-03T21:22:45.882Z,82.92
2022-11-03T21:25:15.404Z,83.27
2022-11-03T21:27:42.442Z,83.24
2022-11-03T21:30:11.878Z,82.67
2022-11-03T21:32:39.250Z,82.71
2022-11-03T21:35:06.877Z,83.04
2022-11-03T21:37:33.899Z,82.65
2022-11-03T21:40:00.549Z,82.94
2022-11-03T21:42:45.875Z,82.74
2022-11-03T21:45:13.488Z,83.07
2022-11-03T21:48:00.333Z,83.08
2022-11-03T21:50:26.997Z,82.81
2022-11-03T21:52:53.549Z,83.31
2022-11-03T21:55:20.146Z,82.92
2022-11-03T21:57:47.009Z,83.24
2022-11-03T22:00:14.327Z,82.92
2022-11-03T22:02:40.883Z,82.79
2022-11-03T22:05:10.774Z,82.93
2022-11-03T22:07:38.848Z,81.94
2022-11-03T22:10:06.713Z,81.98
2022-11-03T22:12:34.078Z,82.13
2022-11-03T22:15:19.078Z,82.07
2022-11-03T22:17:45.796Z,81.76
2022-11-03T22:20:30.882Z,82.06
2022-11-03T22:23:19.049Z,82.00
2022-11-03T22:26:05.509Z,82.52
2022-11-03T22:28:33.685Z,82.04
2022-11-03T22:31:22.289Z,81.87
2022-11-03T22:34:08.023Z,82.19
2022-11-03T22:36:34.606Z,81.96
2022-11-03T22:39:19.707Z,81.88
2022-11-03T22:42:06.539Z,82.15
2022-11-03T22:44:52.043Z,82.06
2022-11-03T22:47:18.969Z,82.02
2022-11-03T22:49:45.854Z,82.06
2022-11-03T22:52:12.539Z,81.99
2022-11-03T22:54:39.118Z,81.06
2022-11-03T22:57:07.693Z,82.13
2022-11-03T22:59:34.338Z,82.35
2022-11-03T23:02:01.018Z,82.19
2022-11-03T23:04:27.718Z,82.34
2022-11-03T23:06:54.358Z,81.98
2022-11-03T23:09:21.206Z,81.57
2022-11-03T23:11:47.759Z,81.87
2022-11-03T23:14:14.437Z,81.06
2022-11-03T23:16:43.932Z,81.70
2022-11-03T23:19:31.135Z,81.67
2022-11-03T23:21:58.540Z,80.83
2022-11-03T23:24:45.552Z,81.17
2022-11-03T23:27:13.600Z,80.88
2022-11-03T23:29:40.376Z,81.02
2022-11-03T23:32:07.893Z,80.87
2022-11-03T23:34:37.116Z,80.85
2022-11-03T23:37:03.991Z,81.96
2022-11-03T23:39:31.171Z,81.13
2022-11-03T23:41:57.780Z,80.82
2022-11-03T23:44:24.377Z,81.02
2022-11-03T23:47:10.965Z,81.51
2022-11-03T23:49:37.533Z,80.79
2022-11-03T23:52:04.143Z,80.51
2022-11-03T23:54:31.542Z,80.81
2022-11-03T23:57:16.666Z,80.46
